Andover, Massachusetts
Current Conditions -  °F | °C
As of 11:54 PM on Friday 31 Oct 2014 (Local Time) from KLWM Reporting Station
Clear Clear  
Wind Chill: 38°   Ceiling: Unl
Heat Index: 42°   Visibility: 10mi
Dew Point: 36°   Wind: 7mph
Humidity: 79%   Direction: 10°N
Pressure: 30"   Gusts: NA
Location:  42.65°N, 71.14°W
Report Text: KLWM 010354Z 01006KT 10SM CLR 06/02 A3000 RMK AO2 SLP159 T00560022
Loading
Personal Weather Stations






























Interactive Weather Map
Tropical Storm Tracking
New forecast layout! Learn more

10-Day Weather Forecast

Advertisements
Track Severe Weather on mobile